Whites Addition, Illinois
Current Conditions -  °F | °C
As of 12:52 AM on Sunday 21 Dec 2014 (Local Time) from KMLI Reporting Station
Haze Haze  
Wind Chill: 27°   Ceiling: 1300
Heat Index: 34°   Visibility: 4mi
Dew Point: 31°   Wind: 9mph
Humidity: 89%   Direction: 170°S
Pressure: 30.17"   Gusts: NA
Location:  41.5228°N, 90.3951°W
Report Text: KMLI 210652Z 17008KT 4SM BR OVC013 01/M01 A3017 RMK AO2 SLP223 T00111006
Loading
Personal Weather Stations






























Interactive Weather Map New forecast layout! Learn more

10-Day Weather Forecast

Advertisements
Track Severe Weather on mobile